Aktuální počasí v Česku a ve světě - METAR

Seznam meteostanic umístěných nejčasteji na letišti v ČR a ve světě

Vyhledat místa podle abecedy:
A B C D E F G H I J K L M N O P Q R S T U V W X Y Z

Filtrovat:

ID stanice:
a/nebo
Název místa (fulltext):
 
Místo (ID)Naposledy načteno 
Verona (LIPX) 02.12.2020 15:50 UTC Zobrazit METAR
LIPX 021550Z 24006KT 7000 -RA BKN030 01/01 Q1010
Vienna (LOWW) 02.12.2020 15:50 UTC Zobrazit METAR
LOWW 021550Z 12008KT 9000 FEW011 BKN013 M02/M04 Q1018 BECMG SCT013
Vientiane (VLVT) 02.12.2020 12:00 UTC Zobrazit METAR
VLVT 021200Z 04002KT 5000 BR NSC 21/17 Q1014 NOSIG
Vieuxfort (TLPL) 02.12.2020 16:00 UTC Zobrazit METAR
TLPL 021600Z 07014KT 9999 FEW027 28/24 Q1014 NOSIG
Vilnius (EYVI) 02.12.2020 15:50 UTC Zobrazit METAR
EYVI 021550Z 09005KT 060V120 9999 OVC018 M03/M04 Q1026 TEMPO BKN005
Vitebsk (UMII) Zatím nenačteno  
Volgograd (URWW) Zatím nenačteno  
Voronezh (UUOO) Zatím nenačteno  
Wake Island (PWAK) 31.05.2020 04:58 UTC Zobrazit METAR
PWAK 310458Z AUTO 08012KT 9999 SCT021 SCT031 BKN055 29/23 A3001 RMK AO2 SLP169 T02860232 $
Warsaw (EPWA) 02.12.2020 16:00 UTC Zobrazit METAR
EPWA 021600Z 10010KT 9999 BKN024 M01/M05 Q1023 R88/1///95 NOSIG
Washington (KIAD) 02.12.2020 15:52 UTC Zobrazit METAR
KIAD 021552Z 30021G31KT 10SM BKN047 BKN110 06/M04 A3010 RMK AO2 PK WND 30031/1550 SLP194 T00611039 $
Wellington (NZWN) 02.12.2020 16:00 UTC Zobrazit METAR
NZWN 021600Z AUTO 33016G31KT 300V010 9999 OVC009/// 16/14 Q1005 TEMPO BKN012
Windhoek (FYWH) 02.12.2020 15:00 UTC Zobrazit METAR
FYWH 021500Z 31006KT CAVOK 33/M01 Q1016 NOSIG
Wroclaw (EPWR) 02.12.2020 16:00 UTC Zobrazit METAR
EPWR 021600Z 13012KT 3000 BR FEW006 M02/M04 Q1019
Yamoussoukro (DIYO) 02.12.2020 15:00 UTC Zobrazit METAR
DIYO 021500Z 30004KT 9999 SCT015 31/23 Q1010 NOSIG
Yangon (VYYY) 02.12.2020 16:00 UTC Zobrazit METAR
VYYY 021600Z 32003KT 7000 NSC 26/23 Q1012 NOSIG
Yaounde (FKYS) 02.12.2020 16:00 UTC Zobrazit METAR
FKYS 021600Z 03003KT 9999 FEW020 30/19 Q1013 NOSIG
Yerevan (UGEE) Zatím nenačteno  
Zadar (LDZD) 02.12.2020 16:00 UTC Zobrazit METAR
LDZD 021600Z 07014KT 9999 SCT030 BKN075 07/03 Q1009 NOSIG
Zagreb (LDZA) 02.12.2020 16:00 UTC Zobrazit METAR
LDZA 021600Z 07004KT 030V110 3000 -SN BR SCT006 OVC012 M01/M02 Q1018 NOSIG
Zaragoza (LEZG) 02.12.2020 16:00 UTC Zobrazit METAR
LEZG 021600Z 31021KT 270V330 CAVOK 09/M01 Q1016
Zhezkazgan (UAKD) Zatím nenačteno  
Zurich (LSZH) 02.12.2020 15:50 UTC Zobrazit METAR
LSZH 021550Z VRB02KT 9999 FEW013 SCT022 BKN027 01/M02 Q1012 NOSIG
Předchozí 1 ... 7 8 9
Reklama


Další české internetové stránky (nejen) o počasí najdete v katalogu TOPlist - weby o počasí nebo vyhledejte na internetu, co jste tu na 🌞 Slunečnu ⛅ zatím nenašli:
⭐ Přidat Slunečno.cz do oblíbených | 🏠 Nastavit Slunečno.cz jako HOMEPAGE

⬆️ Posunout stránku nahoru ⬆️
Reklama